createdAt,value
2023-08-30T00:04:31.542Z,84.88
2023-08-30T00:14:34.786Z,85.07
2023-08-30T00:24:39.007Z,86.57
2023-08-30T00:34:41.816Z,86.44
2023-08-30T00:44:45.977Z,85.99
2023-08-30T00:54:49.070Z,87.42
2023-08-30T01:16:15.983Z,87.86
2023-08-30T01:26:29.124Z,86.84
2023-08-30T01:36:33.681Z,87.24
2023-08-30T01:46:37.040Z,88.14
2023-08-30T01:56:41.294Z,88.49
2023-08-30T02:06:48.093Z,88.76
2023-08-30T02:16:52.874Z,88.39
2023-08-30T02:26:56.170Z,88.89
2023-08-30T02:37:00.321Z,89.15
2023-08-30T02:47:03.216Z,89.97
2023-08-30T02:57:07.458Z,89.95
2023-08-30T03:07:10.293Z,90.53
2023-08-30T03:17:14.454Z,90.28
2023-08-30T03:27:17.697Z,92.10
2023-08-30T03:37:21.863Z,91.75
2023-08-30T03:47:24.794Z,91.65
2023-08-30T03:57:28.960Z,90.94
2023-08-30T04:07:31.744Z,90.44
2023-08-30T04:17:35.962Z,91.42
2023-08-30T04:27:38.887Z,92.03
2023-08-30T04:37:43.929Z,93.23
2023-08-30T04:47:47.036Z,92.39
2023-08-30T04:57:51.352Z,91.58
2023-08-30T05:07:54.157Z,92.28
2023-08-30T05:17:58.294Z,92.80
2023-08-30T05:28:01.120Z,93.04
2023-08-30T05:38:05.569Z,91.73
2023-08-30T05:48:08.768Z,90.88
2023-08-30T05:58:13.090Z,89.83
2023-08-30T06:08:15.955Z,88.23
2023-08-30T06:18:20.433Z,88.41
2023-08-30T06:28:23.240Z,87.96
2023-08-30T06:38:27.444Z,87.52
2023-08-30T06:48:30.259Z,87.92
2023-08-30T06:58:34.479Z,88.04
2023-08-30T07:08:37.394Z,85.44
2023-08-30T07:18:41.772Z,84.75
2023-08-30T07:28:44.735Z,82.24
2023-08-30T07:38:48.866Z,79.95
2023-08-30T07:48:52.989Z,80.14
2023-08-30T07:58:57.530Z,80.20
2023-08-30T08:09:00.940Z,79.18
2023-08-30T08:19:05.280Z,78.31
2023-08-30T08:29:08.068Z,77.87
2023-08-30T08:39:12.261Z,74.39
2023-08-30T08:49:16.405Z,72.95
2023-08-30T08:59:21.857Z,73.33
2023-08-30T09:09:24.955Z,71.59
2023-08-30T09:19:29.417Z,69.46
2023-08-30T09:29:32.765Z,69.19
2023-08-30T09:39:37.046Z,67.18
2023-08-30T09:49:45.413Z,64.50
2023-08-30T09:59:50.965Z,64.12
2023-08-30T10:10:09.062Z,64.25
2023-08-30T10:20:14.634Z,58.74
2023-08-30T10:30:18.311Z,57.77
2023-08-30T10:40:23.261Z,54.90
2023-08-30T10:50:36.562Z,55.52
2023-08-30T11:00:42.221Z,53.49
2023-08-30T11:10:45.896Z,49.61
2023-08-30T11:20:50.178Z,47.83
2023-08-30T11:30:55.799Z,48.02
2023-08-30T11:41:00.010Z,45.15
2023-08-30T11:51:02.961Z,48.43
2023-08-30T12:01:07.283Z,49.07
2023-08-30T12:11:19.785Z,51.54
2023-08-30T12:21:23.960Z,52.26
2023-08-30T12:31:28.664Z,49.64
2023-08-30T12:41:34.610Z,44.63
2023-08-30T12:51:37.473Z,41.71
2023-08-30T13:01:41.879Z,43.49
2023-08-30T13:11:44.882Z,40.96
2023-08-30T13:21:49.061Z,40.19
2023-08-30T13:31:51.942Z,38.79
2023-08-30T13:41:56.069Z,37.17
2023-08-30T13:51:58.913Z,38.13
2023-08-30T14:02:05.184Z,37.11
2023-08-30T14:12:08.854Z,38.65
2023-08-30T14:22:13.359Z,38.65
2023-08-30T14:32:16.143Z,41.01
2023-08-30T14:42:20.285Z,41.27
2023-08-30T14:52:23.288Z,43.03
2023-08-30T15:02:27.464Z,43.54
2023-08-30T15:12:30.274Z,41.73
2023-08-30T15:22:34.499Z,38.32
2023-08-30T15:32:37.414Z,40.25
2023-08-30T15:42:42.333Z,41.41
2023-08-30T15:52:45.196Z,42.48
2023-08-30T16:02:52.824Z,43.59
2023-08-30T16:12:55.925Z,40.06
2023-08-30T16:23:00.809Z,44.89
2023-08-30T16:33:03.695Z,46.48
2023-08-30T16:43:08.500Z,47.14
2023-08-30T16:53:11.313Z,48.14
2023-08-30T17:03:15.944Z,49.69
2023-08-30T17:13:19.937Z,55.05
2023-08-30T17:23:24.888Z,65.45
2023-08-30T17:33:28.602Z,73.87
2023-08-30T17:43:32.765Z,79.12
2023-08-30T17:53:36.248Z,79.06
2023-08-30T18:03:40.664Z,80.39
2023-08-30T18:13:44.171Z,79.84
2023-08-30T18:24:14.858Z,80.67
2023-08-30T18:34:18.085Z,88.46
2023-08-30T18:44:22.236Z,92.78
2023-08-30T18:54:25.419Z,90.87
2023-08-30T19:04:33.999Z,90.51
2023-08-30T19:14:37.272Z,91.89
2023-08-30T19:24:41.699Z,93.03
2023-08-30T19:34:44.521Z,94.74
2023-08-30T19:44:48.794Z,94.28
2023-08-30T19:54:52.055Z,93.77
2023-08-30T20:04:56.922Z,94.63
2023-08-30T20:15:00.189Z,94.83
2023-08-30T20:25:04.691Z,92.69
2023-08-30T20:35:08.278Z,91.38
2023-08-30T20:45:12.762Z,92.20
2023-08-30T20:55:19.201Z,93.00
2023-08-30T21:05:28.196Z,93.75
2023-08-30T21:15:31.121Z,93.15
2023-08-30T21:25:39.244Z,94.98
2023-08-30T21:35:43.429Z,95.80
2023-08-30T21:45:47.616Z,97.33
2023-08-30T21:55:50.408Z,97.04
2023-08-30T22:06:01.786Z,95.95
2023-08-30T22:16:04.953Z,99.46
2023-08-30T22:26:09.165Z,100.00
2023-08-30T22:36:11.962Z,100.00
2023-08-30T22:46:16.339Z,100.00
2023-08-30T22:56:19.167Z,100.00
2023-08-30T23:06:23.335Z,100.00
2023-08-30T23:16:26.237Z,100.00
2023-08-30T23:26:30.471Z,100.00
2023-08-30T23:36:33.288Z,100.00
2023-08-30T23:46:38.850Z,100.00
2023-08-30T23:56:41.840Z,100.00
